Time;durP1;ratioP1;P1;durP2;ratioP2;P2;SDS_P1;SDS_P2;PMS_P1;PMS_P2;Temp;Humidity;BMP_temperature;BMP_pressure;BME280_temperature;BME280_humidity;BME280_pressure;Samples;Min_cycle;Max_cycle;Signal;HPM_P1;HPM_P2
2021/04/23 00:00:30;;;;;;;1.98;1.52;;;;;;;;;;5094222;28;20495;-18
2021/04/23 00:02:59;;;;;;;3.22;1.50;;;;;;;;;;5094572;28;20055;-18
2021/04/23 00:05:24;;;;;;;3.47;1.35;;;;;;;;;;5094129;28;20099;-18
2021/04/23 00:07:50;;;;;;;3.20;1.13;;;;;;;;;;5094262;28;20058;-17
2021/04/23 00:10:16;;;;;;;5.55;1.52;;;;;;;;;;5093795;28;20447;-18
2021/04/23 00:12:41;;;;;;;4.50;1.48;;;;;;;;;;5092641;28;20032;-17
2021/04/23 00:15:09;;;;;;;1.77;1.45;;;;;;;;;;5094195;28;20530;-18
2021/04/23 00:17:34;;;;;;;1.60;1.10;;;;;;;;;;5093862;28;20050;-17
2021/04/23 00:19:59;;;;;;;2.88;1.40;;;;;;;;;;5093801;28;20013;-18
2021/04/23 00:22:25;;;;;;;1.35;1.15;;;;;;;;;;5093867;28;20024;-18
2021/04/23 00:24:50;;;;;;;2.22;1.75;;;;;;;;;;5093698;28;20638;-18
2021/04/23 00:27:16;;;;;;;4.50;1.45;;;;;;;;;;5093705;28;20032;-18
2021/04/23 00:29:41;;;;;;;1.75;1.27;;;;;;;;;;5093365;28;20044;-18
2021/04/23 00:34:51;;;;;;;6.07;1.90;;;;;;;;;;5093753;28;20028;-17
2021/04/23 00:37:17;;;;;;;2.38;1.55;;;;;;;;;;5093581;28;20514;-18
2021/04/23 00:39:42;;;;;;;6.25;1.35;;;;;;;;;;5093567;28;20281;-18
2021/04/23 00:42:07;;;;;;;4.95;1.58;;;;;;;;;;5092185;28;20016;-18
2021/04/23 00:44:33;;;;;;;2.80;1.52;;;;;;;;;;5093698;28;20024;-18
2021/04/23 00:46:59;;;;;;;3.00;1.85;;;;;;;;;;5093430;28;20467;-17
2021/04/23 00:49:24;;;;;;;4.60;2.05;;;;;;;;;;5093288;28;20020;-17
2021/04/23 00:51:56;;;;;;;3.95;2.08;;;;;;;;;;5091736;28;20528;-18
2021/04/23 00:54:22;;;;;;;2.83;2.00;;;;;;;;;;5092225;28;20506;-18
2021/04/23 00:56:48;;;;;;;2.92;1.90;;;;;;;;;;5093378;28;20020;-18
2021/04/23 00:59:14;;;;;;;8.02;2.10;;;;;;;;;;5093094;28;20397;-17
2021/04/23 01:01:41;;;;;;;1.85;1.70;;;;;;;;;;5092973;28;20459;-18
2021/04/23 01:04:11;;;;;;;2.40;1.90;;;;;;;;;;5093039;28;20028;-16
2021/04/23 01:06:37;;;;;;;4.15;1.92;;;;;;;;;;5092993;28;20028;-18
2021/04/23 01:09:13;;;;;;;4.07;1.63;;;;;;;;;;5092818;28;20032;-18
2021/04/23 01:11:38;;;;;;;3.58;1.40;;;;;;;;;;5093147;28;20040;-17
2021/04/23 01:14:04;;;;;;;6.32;2.30;;;;;;;;;;5092811;28;20470;-17
2021/04/23 01:16:29;;;;;;;7.85;1.90;;;;;;;;;;5091532;28;20036;-18
2021/04/23 01:18:56;;;;;;;2.90;1.35;;;;;;;;;;5092755;28;20008;-17
2021/04/23 01:21:26;;;;;;;3.20;1.58;;;;;;;;;;5092780;28;20028;-18
2021/04/23 01:23:52;;;;;;;5.13;1.58;;;;;;;;;;5092965;28;20031;-18
2021/04/23 01:26:18;;;;;;;2.67;1.60;;;;;;;;;;5092774;28;20012;-18
2021/04/23 01:28:45;;;;;;;4.88;2.17;;;;;;;;;;5108014;28;20040;-18
2021/04/23 01:31:11;;;;;;;2.38;1.73;;;;;;;;;;5092909;28;20428;-18
2021/04/23 01:33:39;;;;;;;2.30;1.60;;;;;;;;;;5092636;28;20027;-17
2021/04/23 01:36:05;;;;;;;2.28;1.33;;;;;;;;;;5091209;28;20107;-18
2021/04/23 01:38:31;;;;;;;6.90;1.70;;;;;;;;;;5092714;28;20024;-18
2021/04/23 01:40:56;;;;;;;3.97;1.40;;;;;;;;;;5092460;28;20415;-18
2021/04/23 01:43:21;;;;;;;2.20;1.67;;;;;;;;;;5091189;28;20028;-17
2021/04/23 01:45:47;;;;;;;2.75;1.35;;;;;;;;;;5092418;28;20091;-18
2021/04/23 01:48:13;;;;;;;3.05;1.75;;;;;;;;;;5092458;28;20034;-18
2021/04/23 01:50:39;;;;;;;6.22;1.63;;;;;;;;;;5092157;28;20486;-18
2021/04/23 01:53:04;;;;;;;8.93;2.47;;;;;;;;;;5092696;28;20078;-17
2021/04/23 01:55:30;;;;;;;5.68;1.83;;;;;;;;;;5108190;28;20024;-17
2021/04/23 01:57:56;;;;;;;4.45;1.90;;;;;;;;;;5092476;28;20023;-18
2021/04/23 02:00:25;;;;;;;2.47;1.73;;;;;;;;;;5091011;28;20363;-18
2021/04/23 02:02:51;;;;;;;3.63;2.25;;;;;;;;;;5092495;28;20119;-18
2021/04/23 02:05:17;;;;;;;2.38;1.80;;;;;;;;;;5093532;28;20020;-18
2021/04/23 02:07:42;;;;;;;4.75;1.98;;;;;;;;;;5096635;28;20028;-18
2021/04/23 02:10:09;;;;;;;3.45;2.17;;;;;;;;;;5096281;28;20466;-17
2021/04/23 02:12:35;;;;;;;7.38;2.40;;;;;;;;;;5096286;28;20028;-18
2021/04/23 02:15:00;;;;;;;4.40;2.25;;;;;;;;;;5096234;28;20020;-18
2021/04/23 02:17:26;;;;;;;7.43;1.88;;;;;;;;;;5096429;28;20486;-18
2021/04/23 02:19:51;;;;;;;3.08;1.83;;;;;;;;;;5094789;28;20016;-17
2021/04/23 02:22:17;;;;;;;2.97;1.55;;;;;;;;;;5096464;28;20067;-18
2021/04/23 02:24:42;;;;;;;2.65;1.67;;;;;;;;;;5096051;28;20058;-17
2021/04/23 02:27:08;;;;;;;6.80;1.80;;;;;;;;;;5096027;28;20379;-18
2021/04/23 02:29:33;;;;;;;2.65;2.13;;;;;;;;;;5095745;28;20043;-18
2021/04/23 02:31:59;;;;;;;3.53;1.90;;;;;;;;;;5095728;28;20043;-18
2021/04/23 02:34:25;;;;;;;2.72;1.85;;;;;;;;;;5096228;28;20129;-18
2021/04/23 02:36:51;;;;;;;3.13;1.92;;;;;;;;;;5096045;28;20056;-18
2021/04/23 02:39:19;;;;;;;8.60;2.25;;;;;;;;;;5095942;28;20535;-18
2021/04/23 02:41:45;;;;;;;3.25;2.05;;;;;;;;;;5095673;28;20162;-18
2021/04/23 02:44:11;;;;;;;5.40;1.73;;;;;;;;;;5094436;28;20095;-18
2021/04/23 02:46:37;;;;;;;2.97;2.08;;;;;;;;;;5095710;28;20039;-18
2021/04/23 02:49:03;;;;;;;4.70;2.10;;;;;;;;;;5096030;28;20470;-18
2021/04/23 02:51:29;;;;;;;3.88;2.10;;;;;;;;;;5095494;28;20470;-18
2021/04/23 02:53:55;;;;;;;4.18;1.77;;;;;;;;;;5095703;28;20020;-18
2021/04/23 02:56:22;;;;;;;3.88;2.10;;;;;;;;;;5111507;28;20032;-18
2021/04/23 02:58:47;;;;;;;5.72;2.17;;;;;;;;;;5095322;28;20013;-17
2021/04/23 03:01:17;;;;;;;1.92;1.40;;;;;;;;;;5095302;28;20035;-19
2021/04/23 03:03:43;;;;;;;3.90;2.22;;;;;;;;;;5095182;28;20123;-17
2021/04/23 03:06:10;;;;;;;3.80;1.67;;;;;;;;;;5095638;28;20056;-18
2021/04/23 03:08:35;;;;;;;3.72;2.00;;;;;;;;;;5095233;28;20042;-17
2021/04/23 03:11:08;;;;;;;1.95;1.48;;;;;;;;;;5094981;28;20487;-18
2021/04/23 03:13:34;;;;;;;3.83;1.90;;;;;;;;;;5095180;28;20073;-18
2021/04/23 03:16:00;;;;;;;4.00;1.70;;;;;;;;;;5094626;28;20471;-17
2021/04/23 03:18:26;;;;;;;3.75;1.85;;;;;;;;;;5094231;28;20024;-18
2021/04/23 03:20:53;;;;;;;3.80;2.22;;;;;;;;;;5094975;28;20043;-18
2021/04/23 03:23:18;;;;;;;4.25;2.25;;;;;;;;;;5095246;28;20055;-18
2021/04/23 03:25:44;;;;;;;2.65;1.73;;;;;;;;;;5093429;28;20471;-18
2021/04/23 03:28:09;;;;;;;2.35;1.63;;;;;;;;;;5094676;28;20055;-18
2021/04/23 03:30:39;;;;;;;3.63;2.10;;;;;;;;;;5094701;28;20111;-18
2021/04/23 03:33:04;;;;;;;3.55;1.80;;;;;;;;;;5094925;28;20429;-17
2021/04/23 03:35:30;;;;;;;5.32;1.65;;;;;;;;;;5095046;28;20024;-17
2021/04/23 03:37:56;;;;;;;2.22;1.73;;;;;;;;;;5093231;28;20381;-18
2021/04/23 03:40:23;;;;;;;4.45;1.38;;;;;;;;;;5094825;28;20042;-19
2021/04/23 03:42:48;;;;;;;5.53;2.20;;;;;;;;;;5094745;28;20127;-17
2021/04/23 03:45:15;;;;;;;5.80;2.08;;;;;;;;;;5094476;28;20563;-18
2021/04/23 03:47:40;;;;;;;2.30;1.80;;;;;;;;;;5094763;28;20039;-18
2021/04/23 03:50:07;;;;;;;2.78;1.75;;;;;;;;;;5092903;28;20015;-18
2021/04/23 03:52:32;;;;;;;2.28;1.80;;;;;;;;;;5094618;28;20032;-17
2021/04/23 03:54:59;;;;;;;2.50;1.55;;;;;;;;;;5110069;28;20023;-18
2021/04/23 03:57:24;;;;;;;3.05;1.55;;;;;;;;;;5094397;28;20043;-18
2021/04/23 03:59:50;;;;;;;5.35;1.95;;;;;;;;;;5092907;28;20367;-18
2021/04/23 04:02:15;;;;;;;2.90;1.63;;;;;;;;;;5094139;28;20031;-17
2021/04/23 04:04:41;;;;;;;4.82;1.80;;;;;;;;;;5094227;28;20023;-17
2021/04/23 04:07:06;;;;;;;4.40;2.50;;;;;;;;;;5094035;28;20032;-18
2021/04/23 04:09:31;;;;;;;7.38;2.30;;;;;;;;;;5094286;28;20115;-20
2021/04/23 04:11:57;;;;;;;4.57;2.67;;;;;;;;;;5093864;28;20115;-18
2021/04/23 04:14:22;;;;;;;5.07;2.70;;;;;;;;;;5094209;28;20028;-17
2021/04/23 04:16:48;;;;;;;5.35;3.55;;;;;;;;;;5093915;28;20020;-18
2021/04/23 04:19:14;;;;;;;5.90;3.15;;;;;;;;;;5093931;28;20528;-18
2021/04/23 04:21:39;;;;;;;6.45;2.47;;;;;;;;;;5093813;28;20442;-18
2021/04/23 04:24:05;;;;;;;2.50;2.30;;;;;;;;;;5094007;28;20153;-17
2021/04/23 04:26:30;;;;;;;3.80;2.25;;;;;;;;;;5093723;28;20032;-18
2021/04/23 04:28:56;;;;;;;4.05;2.35;;;;;;;;;;5093194;28;20481;-17
2021/04/23 04:31:21;;;;;;;3.70;2.15;;;;;;;;;;5093667;28;20048;-17
2021/04/23 04:33:48;;;;;;;3.05;1.83;;;;;;;;;;5093734;28;20441;-18
2021/04/23 04:36:13;;;;;;;6.07;2.35;;;;;;;;;;5093751;28;20036;-18
2021/04/23 04:38:39;;;;;;;3.28;2.42;;;;;;;;;;5093731;28;20028;-18
2021/04/23 04:41:04;;;;;;;3.42;2.22;;;;;;;;;;5093443;28;20390;-18
2021/04/23 04:43:30;;;;;;;2.78;1.92;;;;;;;;;;5093749;28;20016;-18
2021/04/23 04:45:55;;;;;;;3.53;2.00;;;;;;;;;;5093244;28;20107;-17
2021/04/23 04:48:21;;;;;;;3.10;2.42;;;;;;;;;;5093341;28;20027;-18
2021/04/23 04:50:48;;;;;;;6.47;2.60;;;;;;;;;;5108756;28;20064;-17
2021/04/23 04:53:14;;;;;;;5.68;2.42;;;;;;;;;;5093581;28;20024;-18
2021/04/23 04:55:42;;;;;;;2.60;1.95;;;;;;;;;;5093255;28;20020;-18
2021/04/23 04:58:08;;;;;;;5.05;2.30;;;;;;;;;;5093030;28;20016;-18
2021/04/23 05:00:35;;;;;;;4.65;2.25;;;;;;;;;;5093100;28;20464;-19
2021/04/23 05:03:00;;;;;;;3.63;2.38;;;;;;;;;;5091684;28;20020;-19
2021/04/23 05:05:26;;;;;;;2.90;2.42;;;;;;;;;;5092984;28;20383;-19
2021/04/23 05:07:53;;;;;;;4.63;2.78;;;;;;;;;;5092938;28;20042;-19
2021/04/23 05:10:19;;;;;;;4.50;2.38;;;;;;;;;;5092829;28;20028;-19
2021/04/23 05:12:44;;;;;;;4.65;2.75;;;;;;;;;;5093051;28;20027;-19
2021/04/23 05:15:10;;;;;;;6.75;2.92;;;;;;;;;;5093113;28;20028;-19
2021/04/23 05:17:35;;;;;;;4.72;2.50;;;;;;;;;;5092769;28;20020;-18
2021/04/23 05:20:02;;;;;;;3.05;2.50;;;;;;;;;;5092654;28;20069;-18
2021/04/23 05:22:28;;;;;;;5.55;2.78;;;;;;;;;;5092710;28;20020;-18
2021/04/23 05:24:53;;;;;;;3.17;2.53;;;;;;;;;;5092666;28;20035;-18
2021/04/23 05:27:19;;;;;;;3.50;2.42;;;;;;;;;;5092637;28;20024;-18
2021/04/23 05:29:44;;;;;;;3.90;2.20;;;;;;;;;;5092387;28;20055;-18
2021/04/23 05:32:10;;;;;;;4.88;2.60;;;;;;;;;;5092545;28;20036;-18
2021/04/23 05:34:35;;;;;;;4.65;3.00;;;;;;;;;;5092673;28;20032;-18
2021/04/23 05:37:01;;;;;;;4.25;2.38;;;;;;;;;;5092556;28;20065;-18
2021/04/23 05:39:26;;;;;;;5.22;3.33;;;;;;;;;;5092166;28;20378;-17
2021/04/23 05:41:52;;;;;;;3.00;2.40;;;;;;;;;;5092413;28;20024;-18
2021/04/23 05:44:17;;;;;;;3.78;2.90;;;;;;;;;;5091204;28;20032;-18
2021/04/23 05:46:43;;;;;;;15.23;3.58;;;;;;;;;;5092329;28;20024;-18
2021/04/23 05:49:09;;;;;;;6.10;2.90;;;;;;;;;;5092370;28;20486;-17
2021/04/23 05:51:34;;;;;;;4.75;2.83;;;;;;;;;;5091047;28;20077;-17
2021/04/23 05:54:00;;;;;;;4.13;2.72;;;;;;;;;;5092271;28;20033;-17
2021/04/23 05:56:25;;;;;;;4.72;3.13;;;;;;;;;;5092485;28;20027;-18
2021/04/23 05:58:53;;;;;;;5.38;2.65;;;;;;;;;;5092528;28;20076;-17
2021/04/23 06:01:18;;;;;;;4.43;3.20;;;;;;;;;;5092568;28;20446;-17
2021/04/23 06:03:44;;;;;;;3.50;2.55;;;;;;;;;;5092474;28;20050;-17
2021/04/23 06:06:09;;;;;;;3.83;2.38;;;;;;;;;;5092673;28;20459;-17
2021/04/23 06:08:35;;;;;;;4.00;2.78;;;;;;;;;;5092473;28;20360;-18
2021/04/23 06:11:00;;;;;;;4.10;2.80;;;;;;;;;;5092164;28;20498;-17
2021/04/23 06:13:26;;;;;;;3.88;2.95;;;;;;;;;;5090263;28;20113;-20
2021/04/23 06:15:51;;;;;;;3.72;2.60;;;;;;;;;;5092344;28;20030;-18
2021/04/23 06:18:17;;;;;;;6.63;3.92;;;;;;;;;;5092066;28;20540;-17
2021/04/23 06:20:43;;;;;;;4.50;3.05;;;;;;;;;;5092205;28;20032;-17
2021/04/23 06:23:08;;;;;;;4.68;2.60;;;;;;;;;;5092246;28;20029;-18
2021/04/23 06:25:34;;;;;;;4.22;2.95;;;;;;;;;;5092041;28;20470;-18
2021/04/23 06:28:01;;;;;;;4.32;2.38;;;;;;;;;;5091776;28;20047;-18
2021/04/23 06:30:29;;;;;;;4.75;2.70;;;;;;;;;;5107675;28;20116;-17
2021/04/23 06:32:55;;;;;;;4.13;3.38;;;;;;;;;;5090687;28;20032;-17
2021/04/23 06:35:23;;;;;;;6.68;4.47;;;;;;;;;;5092121;28;20081;-18
2021/04/23 06:37:48;;;;;;;8.27;4.03;;;;;;;;;;5091828;28;20059;-17
2021/04/23 06:40:14;;;;;;;5.63;3.38;;;;;;;;;;5092176;28;20048;-18
2021/04/23 06:42:40;;;;;;;3.67;2.03;;;;;;;;;;5091943;28;20085;-17
2021/04/23 06:45:07;;;;;;;4.25;2.35;;;;;;;;;;5092031;28;20020;-18
2021/04/23 06:47:33;;;;;;;7.65;3.47;;;;;;;;;;5091987;28;20494;-18
2021/04/23 06:49:58;;;;;;;3.78;2.90;;;;;;;;;;5091652;28;20012;-17
2021/04/23 06:52:23;;;;;;;4.25;3.50;;;;;;;;;;5094894;28;20039;-17
2021/04/23 06:54:50;;;;;;;5.18;3.15;;;;;;;;;;5095541;28;20557;-18
2021/04/23 06:57:15;;;;;;;8.90;3.30;;;;;;;;;;5095487;28;20107;-18
2021/04/23 06:59:41;;;;;;;4.50;2.75;;;;;;;;;;5095674;28;20099;-18
2021/04/23 07:02:07;;;;;;;5.97;2.90;;;;;;;;;;5095279;28;20161;-17
2021/04/23 07:04:32;;;;;;;4.00;2.47;;;;;;;;;;5095269;28;20023;-16
2021/04/23 07:06:58;;;;;;;3.42;2.13;;;;;;;;;;5095488;28;20036;-18
2021/04/23 07:09:23;;;;;;;4.47;2.60;;;;;;;;;;5095220;28;20344;-17
2021/04/23 07:11:49;;;;;;;3.53;2.60;;;;;;;;;;5095082;28;20032;-18
2021/04/23 07:14:14;;;;;;;6.97;3.35;;;;;;;;;;5095194;28;20016;-19
2021/04/23 07:16:39;;;;;;;6.35;3.28;;;;;;;;;;5095073;28;20111;-17
2021/04/23 07:19:05;;;;;;;3.22;2.42;;;;;;;;;;5095194;28;20062;-18
2021/04/23 07:21:30;;;;;;;7.07;2.83;;;;;;;;;;5095299;28;20445;-18
2021/04/23 07:23:56;;;;;;;4.47;3.47;;;;;;;;;;5094905;28;20012;-17
2021/04/23 07:26:22;;;;;;;3.67;2.83;;;;;;;;;;5094902;28;20067;-17
2021/04/23 07:28:47;;;;;;;4.32;2.88;;;;;;;;;;5094624;28;20064;-18
2021/04/23 07:31:12;;;;;;;5.43;3.20;;;;;;;;;;5094850;28;20040;-18
2021/04/23 07:33:38;;;;;;;5.20;3.78;;;;;;;;;;5110378;28;20039;-17
2021/04/23 07:36:03;;;;;;;3.70;2.67;;;;;;;;;;5093384;28;20040;-18
2021/04/23 07:38:30;;;;;;;4.55;3.08;;;;;;;;;;5094688;28;20017;-18
2021/04/23 07:40:56;;;;;;;4.57;2.80;;;;;;;;;;5094536;28;20032;-17
2021/04/23 07:43:21;;;;;;;3.40;2.58;;;;;;;;;;5094716;28;20142;-17
2021/04/23 07:45:47;;;;;;;5.45;2.67;;;;;;;;;;5094751;28;20043;-17
2021/04/23 07:48:12;;;;;;;3.35;2.25;;;;;;;;;;5094470;28;20012;-17
2021/04/23 07:50:38;;;;;;;5.97;3.08;;;;;;;;;;5110433;28;20485;-17
2021/04/23 07:53:03;;;;;;;2.97;2.13;;;;;;;;;;5094393;28;20016;-17
2021/04/23 07:55:29;;;;;;;3.55;2.70;;;;;;;;;;5094650;28;20032;-18
2021/04/23 07:57:54;;;;;;;6.30;2.78;;;;;;;;;;5109996;28;20012;-18
2021/04/23 08:00:20;;;;;;;4.68;2.58;;;;;;;;;;5094378;28;20364;-18
2021/04/23 08:02:46;;;;;;;3.20;2.30;;;;;;;;;;5093830;28;20024;-18
2021/04/23 08:05:14;;;;;;;4.20;3.67;;;;;;;;;;5094216;28;20656;-18
2021/04/23 08:07:39;;;;;;;3.85;2.22;;;;;;;;;;5094168;28;20097;-18
2021/04/23 08:10:05;;;;;;;6.45;3.08;;;;;;;;;;5093973;28;20494;-18
2021/04/23 08:12:31;;;;;;;3.42;2.20;;;;;;;;;;5093956;28;20032;-18
2021/04/23 08:14:56;;;;;;;2.55;2.17;;;;;;;;;;5093891;28;20095;-18
2021/04/23 08:17:23;;;;;;;6.00;2.78;;;;;;;;;;5092543;28;20027;-18
2021/04/23 08:19:48;;;;;;;4.00;2.55;;;;;;;;;;5092481;28;20024;-18
2021/04/23 08:22:14;;;;;;;4.78;2.95;;;;;;;;;;5093869;28;20020;-17
2021/04/23 08:24:39;;;;;;;4.22;3.25;;;;;;;;;;5094039;28;20056;-18
2021/04/23 08:27:05;;;;;;;4.03;2.25;;;;;;;;;;5093605;28;20494;-18
2021/04/23 08:29:30;;;;;;;3.83;1.92;;;;;;;;;;5093578;28;20044;-18
2021/04/23 08:31:56;;;;;;;3.55;2.20;;;;;;;;;;5092188;28;20474;-18
2021/04/23 08:34:21;;;;;;;5.15;3.03;;;;;;;;;;5093768;28;20368;-18
2021/04/23 08:36:47;;;;;;;7.78;2.63;;;;;;;;;;5093443;28;20463;-18
2021/04/23 08:39:13;;;;;;;3.67;2.38;;;;;;;;;;5093478;28;20020;-18
2021/04/23 08:41:39;;;;;;;7.78;2.35;;;;;;;;;;5093783;28;20077;-18
2021/04/23 08:44:05;;;;;;;5.85;2.78;;;;;;;;;;5109157;28;20677;-20
2021/04/23 08:46:32;;;;;;;3.30;2.17;;;;;;;;;;5093381;28;20030;-20
2021/04/23 08:48:58;;;;;;;3.95;2.60;;;;;;;;;;5093239;28;20081;-17
2021/04/23 08:51:24;;;;;;;2.90;2.30;;;;;;;;;;5093451;28;20471;-18
2021/04/23 08:53:50;;;;;;;2.67;1.70;;;;;;;;;;5093237;28;20039;-19
2021/04/23 08:56:16;;;;;;;3.70;2.80;;;;;;;;;;5093479;28;20032;-17
2021/04/23 08:58:41;;;;;;;2.40;1.80;;;;;;;;;;5108869;28;20094;-18
2021/04/23 09:01:07;;;;;;;4.85;2.35;;;;;;;;;;5093052;28;20016;-18
2021/04/23 09:03:32;;;;;;;4.18;2.95;;;;;;;;;;5093366;28;20028;-17
2021/04/23 09:06:07;;;;;;;3.50;2.30;;;;;;;;;;5092978;28;20455;-17
2021/04/23 09:08:36;;;;;;;5.38;2.55;;;;;;;;;;5092979;28;20043;-18
2021/04/23 09:11:15;;;;;;;4.03;2.75;;;;;;;;;;5092826;28;20035;-18
2021/04/23 09:14:03;;;;;;;4.05;2.35;;;;;;;;;;5092859;28;20157;-18
2021/04/23 09:16:44;;;;;;;5.03;2.15;;;;;;;;;;5085549;28;20036;-18
2021/04/23 09:19:14;;;;;;;2.78;2.17;;;;;;;;;;5092804;28;20502;-17
2021/04/23 09:21:51;;;;;;;3.53;1.80;;;;;;;;;;5092822;28;20039;-18
2021/04/23 09:24:21;;;;;;;2.35;1.67;;;;;;;;;;5092824;28;20028;-17
2021/04/23 09:26:48;;;;;;;3.20;1.60;;;;;;;;;;5092586;28;20031;-17
2021/04/23 09:29:21;;;;;;;2.85;2.45;;;;;;;;;;5092517;28;20048;-17
2021/04/23 09:31:46;;;;;;;;;;;;;;;;;;5108634;28;20444;-18
2021/04/23 09:34:12;;;;;;;2.83;2.22;;;;;;;;;;5092650;28;19904;-17
2021/04/23 09:36:43;;;;;;;2.58;1.88;;;;;;;;;;5091306;28;20386;-18
2021/04/23 09:39:09;;;;;;;2.58;2.25;;;;;;;;;;5092457;28;20028;-17
2021/04/23 09:41:35;;;;;;;3.58;2.80;;;;;;;;;;5092796;28;20094;-17
2021/04/23 09:44:01;;;;;;;3.08;1.90;;;;;;;;;;5092455;28;20422;-18
2021/04/23 09:46:36;;;;;;;2.00;1.80;;;;;;;;;;5092515;28;20016;-18
2021/04/23 09:49:14;;;;;;;2.30;2.00;;;;;;;;;;5092551;28;20378;-17
2021/04/23 09:51:40;;;;;;;1.73;1.63;;;;;;;;;;5092338;28;20040;-18
2021/04/23 09:54:18;;;;;;;1.95;1.70;;;;;;;;;;5092318;28;20020;-18
2021/04/23 09:56:44;;;;;;;2.55;1.77;;;;;;;;;;5092370;28;20032;-18
2021/04/23 09:59:13;;;;;;;3.25;2.22;;;;;;;;;;5092551;28;20008;-17
2021/04/23 10:01:50;;;;;;;3.60;2.35;;;;;;;;;;5092401;28;20092;-17
2021/04/23 10:04:19;;;;;;;3.22;2.03;;;;;;;;;;5092215;28;20056;-17
2021/04/23 10:06:45;;;;;;;3.88;1.90;;;;;;;;;;5092600;28;20024;-17
2021/04/23 10:09:10;;;;;;;4.68;2.60;;;;;;;;;;5092204;28;20040;-19
2021/04/23 10:11:42;;;;;;;2.40;1.85;;;;;;;;;;5092202;28;20038;-17
2021/04/23 10:14:08;;;;;;;2.55;1.70;;;;;;;;;;5092253;28;20028;-17
2021/04/23 10:16:37;;;;;;;2.13;1.20;;;;;;;;;;5092091;28;20051;-17
2021/04/23 10:19:04;;;;;;;1.92;1.38;;;;;;;;;;5090804;28;20065;-18
2021/04/23 10:21:29;;;;;;;4.07;2.58;;;;;;;;;;5092423;28;20020;-17
2021/04/23 10:23:55;;;;;;;3.28;2.33;;;;;;;;;;5092072;28;20543;-18
2021/04/23 10:26:20;;;;;;;2.53;1.63;;;;;;;;;;5093790;28;20016;-18
2021/04/23 10:28:46;;;;;;;5.72;2.45;;;;;;;;;;5096010;28;20624;-18
2021/04/23 10:31:12;;;;;;;3.03;2.17;;;;;;;;;;5111652;28;20035;-18
2021/04/23 10:33:38;;;;;;;3.40;2.00;;;;;;;;;;5095936;28;20375;-18
2021/04/23 10:36:03;;;;;;;1.92;1.15;;;;;;;;;;5096099;28;20028;-18
2021/04/23 10:38:35;;;;;;;2.70;2.00;;;;;;;;;;5095811;28;20020;-18
2021/04/23 10:41:03;;;;;;;2.00;1.80;;;;;;;;;;5111471;28;20471;-18
2021/04/23 10:43:29;;;;;;;2.47;1.80;;;;;;;;;;5095739;28;20508;-18
2021/04/23 10:45:57;;;;;;;2.15;1.58;;;;;;;;;;5095435;28;20040;-17
2021/04/23 10:48:24;;;;;;;2.97;2.20;;;;;;;;;;5095685;28;20020;-18
2021/04/23 10:50:52;;;;;;;5.47;2.35;;;;;;;;;;5095472;28;20046;-17
2021/04/23 10:53:26;;;;;;;2.25;1.98;;;;;;;;;;5095593;28;20105;-18
2021/04/23 10:55:52;;;;;;;5.63;2.05;;;;;;;;;;5095470;28;20036;-17
2021/04/23 10:58:34;;;;;;;1.92;1.52;;;;;;;;;;5095473;28;20095;-17
2021/04/23 11:01:18;;;;;;;4.97;1.97;;;;;;;;;;5095442;28;20035;-18
2021/04/23 11:03:45;;;;;;;3.65;2.50;;;;;;;;;;5095412;28;20028;-17
2021/04/23 11:06:13;;;;;;;5.03;1.90;;;;;;;;;;5095281;28;20022;-16
2021/04/23 11:08:59;;;;;;;1.80;1.30;;;;;;;;;;5095246;28;20016;-19
2021/04/23 11:11:37;;;;;;;2.35;1.50;;;;;;;;;;5095172;28;20040;-17
2021/04/23 11:14:19;;;;;;;1.98;1.45;;;;;;;;;;5095135;28;20234;-17
2021/04/23 11:16:46;;;;;;;1.55;1.35;;;;;;;;;;5095373;28;20439;-17
2021/04/23 11:19:21;;;;;;;3.83;2.00;;;;;;;;;;5095256;28;20091;-17
2021/04/23 11:21:50;;;;;;;2.72;1.63;;;;;;;;;;5095051;28;20600;-18
2021/04/23 11:24:21;;;;;;;1.83;1.58;;;;;;;;;;5095090;28;20024;-17
2021/04/23 11:26:53;;;;;;;3.50;2.00;;;;;;;;;;5095235;28;20028;-18
2021/04/23 11:29:25;;;;;;;2.92;1.73;;;;;;;;;;5094741;28;20044;-17
2021/04/23 11:32:07;;;;;;;1.90;1.27;;;;;;;;;;5094716;28;20044;-19
2021/04/23 11:34:40;;;;;;;5.17;1.60;;;;;;;;;;5095158;28;20047;-17
2021/04/23 11:37:07;;;;;;;1.75;1.23;;;;;;;;;;5110033;28;20359;-17
2021/04/23 11:39:34;;;;;;;3.47;1.65;;;;;;;;;;5092887;28;20028;-17
2021/04/23 11:42:09;;;;;;;1.23;1.13;;;;;;;;;;5094906;28;20028;-17
2021/04/23 11:44:50;;;;;;;1.45;1.30;;;;;;;;;;5094680;28;20024;-18
2021/04/23 11:47:29;;;;;;;1.92;1.73;;;;;;;;;;5094887;28;20039;-17
2021/04/23 11:50:03;;;;;;;2.97;1.50;;;;;;;;;;5093199;28;20111;-17
2021/04/23 11:52:30;;;;;;;1.73;1.38;;;;;;;;;;5094654;28;20040;-18
2021/04/23 11:54:55;;;;;;;2.55;1.75;;;;;;;;;;5094397;28;20493;-17
2021/04/23 11:57:26;;;;;;;2.33;1.90;;;;;;;;;;5094263;28;20063;-18
2021/04/23 11:59:56;;;;;;;1.73;1.38;;;;;;;;;;5094306;28;20067;-18
2021/04/23 12:02:37;;;;;;;3.47;1.63;;;;;;;;;;5094344;28;20036;-17
2021/04/23 12:05:02;;;;;;;2.40;1.40;;;;;;;;;;5092825;28;20040;-17
2021/04/23 12:07:40;;;;;;;4.03;1.45;;;;;;;;;;5094159;28;20050;-17
2021/04/23 12:10:06;;;;;;;1.38;1.20;;;;;;;;;;5094050;28;20060;-17
2021/04/23 12:12:32;;;;;;;1.30;1.00;;;;;;;;;;5093965;28;20031;-17
2021/04/23 12:14:57;;;;;;;1.63;1.42;;;;;;;;;;5093928;28;20028;-18
2021/04/23 12:17:22;;;;;;;2.50;1.80;;;;;;;;;;5093892;28;20055;-18
2021/04/23 12:19:48;;;;;;;2.17;1.42;;;;;;;;;;5094096;28;20050;-18
2021/04/23 12:22:14;;;;;;;1.63;1.52;;;;;;;;;;5093991;28;20019;-18
2021/04/23 12:24:40;;;;;;;5.13;1.92;;;;;;;;;;5094055;28;20036;-18
2021/04/23 12:27:05;;;;;;;1.92;1.42;;;;;;;;;;5092511;28;20429;-18
2021/04/23 12:29:31;;;;;;;2.13;1.52;;;;;;;;;;5093581;28;20054;-18
2021/04/23 12:31:56;;;;;;;1.88;1.63;;;;;;;;;;5093539;28;20498;-17
2021/04/23 12:34:22;;;;;;;3.30;1.50;;;;;;;;;;5093739;28;20028;-18
2021/04/23 12:36:51;;;;;;;1.50;1.13;;;;;;;;;;5093581;28;20024;-18
2021/04/23 12:39:27;;;;;;;3.38;1.92;;;;;;;;;;5109188;28;20051;-18
2021/04/23 12:42:03;;;;;;;3.55;3.10;;;;;;;;;;5093681;28;20093;-18
2021/04/23 12:44:30;;;;;;;2.88;1.35;;;;;;;;;;5093840;28;20058;-17
2021/04/23 12:46:59;;;;;;;5.40;2.00;;;;;;;;;;5093510;28;20026;-17
2021/04/23 12:49:32;;;;;;;3.45;1.55;;;;;;;;;;5093293;28;20024;-17
2021/04/23 12:51:57;;;;;;;;;;;;;;;;;;5093542;28;20032;-17
2021/04/23 12:54:33;;;;;;;1.75;1.38;;;;;;;;;;5093297;28;19981;-17
2021/04/23 12:57:00;;;;;;;2.08;1.35;;;;;;;;;;5093194;28;20626;-18
2021/04/23 12:59:52;;;;;;;2.33;1.60;;;;;;;;;;5093498;28;20047;-18
2021/04/23 13:02:21;;;;;;;2.65;1.42;;;;;;;;;;5091901;28;20479;-18
2021/04/23 13:04:47;;;;;;;3.88;2.00;;;;;;;;;;5093026;28;20016;-18
2021/04/23 13:07:17;;;;;;;2.35;1.55;;;;;;;;;;5093042;28;20386;-18
2021/04/23 13:09:43;;;;;;;1.83;1.33;;;;;;;;;;5093305;28;20035;-18
2021/04/23 13:12:18;;;;;;;2.25;1.30;;;;;;;;;;5091953;28;20097;-17
2021/04/23 13:14:44;;;;;;;3.30;2.03;;;;;;;;;;5092943;28;20470;-18
2021/04/23 13:17:10;;;;;;;2.63;1.50;;;;;;;;;;5092361;28;20030;-17
2021/04/23 13:19:40;;;;;;;4.93;1.92;;;;;;;;;;5108303;28;20073;-17
2021/04/23 13:22:25;;;;;;;2.67;1.80;;;;;;;;;;5092476;28;20524;-18
2021/04/23 13:25:11;;;;;;;2.17;1.55;;;;;;;;;;5090887;28;20020;-18
2021/04/23 13:27:38;;;;;;;2.30;1.60;;;;;;;;;;5092281;28;20028;-18
2021/04/23 13:30:05;;;;;;;2.70;1.90;;;;;;;;;;5092145;28;20426;-18
2021/04/23 13:33:00;;;;;;;3.65;1.90;;;;;;;;;;5090993;28;20662;-17
2021/04/23 13:35:28;;;;;;;5.07;1.75;;;;;;;;;;5087611;28;20078;-18
2021/04/23 13:37:54;;;;;;;2.33;1.73;;;;;;;;;;5092407;28;20016;-18
2021/04/23 13:40:25;;;;;;;2.75;1.55;;;;;;;;;;5092620;28;20031;-18
2021/04/23 13:42:51;;;;;;;1.48;1.35;;;;;;;;;;5090848;28;20039;-19
2021/04/23 13:45:17;;;;;;;2.03;1.65;;;;;;;;;;5092400;28;20379;-18
2021/04/23 13:47:43;;;;;;;2.28;1.30;;;;;;;;;;5092031;28;20024;-18
2021/04/23 13:50:13;;;;;;;1.42;1.33;;;;;;;;;;5092101;28;20042;-19
2021/04/23 13:52:42;;;;;;;1.40;1.30;;;;;;;;;;5091870;28;20072;-18
2021/04/23 13:55:08;;;;;;;2.17;1.52;;;;;;;;;;5092352;28;20016;-18
2021/04/23 13:57:34;;;;;;;1.20;1.08;;;;;;;;;;5107979;28;20093;-18
2021/04/23 14:00:00;;;;;;;1.48;1.38;;;;;;;;;;5092331;28;20027;-18
2021/04/23 14:02:26;;;;;;;2.65;1.60;;;;;;;;;;5095378;28;20046;-18
2021/04/23 14:04:52;;;;;;;1.77;0.85;;;;;;;;;;5096247;28;20465;-18
2021/04/23 14:07:18;;;;;;;1.50;1.40;;;;;;;;;;5096395;28;20039;-19
2021/04/23 14:09:44;;;;;;;1.70;1.42;;;;;;;;;;5096530;28;20020;-18
2021/04/23 14:12:11;;;;;;;2.33;1.63;;;;;;;;;;5096325;28;20047;-18
2021/04/23 14:14:37;;;;;;;2.22;1.38;;;;;;;;;;5095119;28;20466;-18
2021/04/23 14:17:11;;;;;;;1.58;1.48;;;;;;;;;;5096136;28;20036;-19
2021/04/23 14:19:38;;;;;;;2.60;1.48;;;;;;;;;;5096232;28;20046;-19
2021/04/23 14:22:05;;;;;;;2.78;1.90;;;;;;;;;;5096222;28;20058;-18
2021/04/23 14:24:31;;;;;;;2.58;1.63;;;;;;;;;;5096256;28;20020;-19
2021/04/23 14:26:57;;;;;;;2.05;1.65;;;;;;;;;;5096025;28;20020;-18
2021/04/23 14:29:23;;;;;;;2.30;1.38;;;;;;;;;;5111617;28;20040;-18
2021/04/23 14:31:49;;;;;;;2.10;1.70;;;;;;;;;;5095954;28;20574;-18
2021/04/23 14:34:16;;;;;;;3.47;1.80;;;;;;;;;;5096194;28;20035;-19
2021/04/23 14:36:41;;;;;;;1.95;1.55;;;;;;;;;;5096187;28;20020;-18
2021/04/23 14:39:08;;;;;;;1.58;1.45;;;;;;;;;;5096055;28;20032;-18
2021/04/23 14:41:34;;;;;;;2.63;2.42;;;;;;;;;;5096116;28;20406;-18
2021/04/23 14:44:00;;;;;;;5.75;1.73;;;;;;;;;;5095827;28;20032;-18
2021/04/23 14:46:25;;;;;;;1.58;1.40;;;;;;;;;;5095779;28;20027;-18